Time;durP1;ratioP1;P1;durP2;ratioP2;P2;SDS_P1;SDS_P2;PMS_P1;PMS_P2;Temp;Humidity;BMP_temperature;BMP_pressure;BME280_temperature;BME280_humidity;BME280_pressure;Samples;Min_cycle;Max_cycle;Signal;HPM_P1;HPM_P2
2023/10/13 00:00:37;;;;;;;78.07;30.88;;;15.90;99.90;;;;;;5044925;28;20048;-73
2023/10/13 00:03:05;;;;;;;86.25;30.92;;;16.10;99.90;;;;;;5045262;28;20048;-73
2023/10/13 00:05:32;;;;;;;76.57;30.27;;;15.80;99.90;;;;;;5043485;28;20072;-73
2023/10/13 00:08:02;;;;;;;75.28;28.67;;;16.20;99.90;;;;;;5040543;28;20041;-72
2023/10/13 00:10:33;;;;;;;68.05;28.30;;;16.00;99.90;;;;;;5045643;28;20036;-73
2023/10/13 00:13:12;;;;;;;71.45;29.75;;;;;;;;;;5057856;28;20048;-73
2023/10/13 00:15:56;;;;;;;69.00;28.77;;;16.20;99.90;;;;;;5053452;28;20048;-73
2023/10/13 00:18:34;;;;;;;65.28;27.38;;;16.20;99.90;;;;;;5045475;28;20544;-73
2023/10/13 00:21:12;;;;;;;72.65;29.67;;;16.30;99.90;;;;;;5063963;28;20040;-73
2023/10/13 00:23:39;;;;;;;61.33;26.20;;;;;;;;;;5042728;28;20052;-73
2023/10/13 00:26:09;;;;;;;59.35;26.65;;;16.30;99.90;;;;;;5061820;28;20059;-73
2023/10/13 00:28:47;;;;;;;60.10;26.80;;;16.30;99.90;;;;;;5057295;28;20040;-73
2023/10/13 00:31:14;;;;;;;63.13;26.55;;;16.40;99.90;;;;;;5038414;28;20044;-73
2023/10/13 00:33:42;;;;;;;54.25;25.45;;;16.50;99.90;;;;;;5041660;28;20055;-73
2023/10/13 00:36:10;;;;;;;65.75;27.15;;;16.30;99.90;;;;;;5042014;28;20052;-73
2023/10/13 00:38:37;;;;;;;57.17;25.75;;;;;;;;;;5040109;28;20048;-73
2023/10/13 00:41:07;;;;;;;58.60;24.65;;;;;;;;;;5061030;28;20382;-73
2023/10/13 00:43:34;;;;;;;60.15;26.15;;;;;;;;;;5042475;28;20048;-73
2023/10/13 00:48:33;;;;;;;60.80;25.00;;;16.60;99.90;;;;;;5041076;28;20059;-73
2023/10/13 00:51:06;;;;;;;56.75;27.05;;;16.40;99.90;;;;;;5042404;28;20128;-73
2023/10/13 00:53:39;;;;;;;55.95;24.58;;;16.50;99.90;;;;;;5042231;28;20084;-73
2023/10/13 00:56:27;;;;;;;47.35;22.40;;;;;;;;;;5065451;28;20825;-73
2023/10/13 00:58:57;;;;;;;54.67;23.77;;;16.30;99.90;;;;;;5039105;28;20056;-73
2023/10/13 01:01:29;;;;;;;54.47;22.90;;;16.50;99.90;;;;;;5044689;28;20052;-73
2023/10/13 01:03:58;;;;;;;55.28;23.02;;;16.70;99.90;;;;;;5049882;28;20082;-73
2023/10/13 01:06:27;;;;;;;54.05;24.98;;;;;;;;;;5047301;28;20049;-72
2023/10/13 01:09:19;;;;;;;49.40;21.50;;;16.60;99.90;;;;;;5049717;28;20082;-73
2023/10/13 01:11:52;;;;;;;46.22;22.02;;;16.70;99.90;;;;;;5042689;28;20049;-72
2023/10/13 01:14:20;;;;;;;46.58;21.67;;;16.60;99.90;;;;;;5049204;28;20044;-73
2023/10/13 01:16:47;;;;;;;52.55;21.65;;;16.60;99.90;;;;;;5049859;28;20182;-73
2023/10/13 01:19:14;;;;;;;45.55;22.17;;;16.40;99.90;;;;;;5048888;28;20040;-72
2023/10/13 01:21:47;;;;;;;41.95;22.05;;;16.40;99.90;;;;;;5067584;28;20044;-72
2023/10/13 01:24:17;;;;;;;44.90;22.23;;;;;;;;;;5046228;28;20060;-72
2023/10/13 01:26:43;;;;;;;41.00;20.30;;;16.50;99.90;;;;;;5047203;28;20102;-72
2023/10/13 01:29:13;;;;;;;50.10;23.63;;;16.50;99.90;;;;;;5063889;28;20049;-73
2023/10/13 01:31:46;;;;;;;47.10;22.52;;;16.60;99.90;;;;;;5048525;28;20045;-72
2023/10/13 01:34:21;;;;;;;45.03;22.15;;;16.60;99.90;;;;;;5049469;28;20049;-73
2023/10/13 01:36:56;;;;;;;43.63;21.45;;;16.50;99.90;;;;;;5066642;28;20047;-72
2023/10/13 01:39:26;;;;;;;45.60;22.00;;;16.70;99.90;;;;;;5066793;28;20102;-72
2023/10/13 01:41:56;;;;;;;52.70;24.02;;;16.50;99.90;;;;;;5063806;28;20154;-72
2023/10/13 01:44:30;;;;;;;49.08;22.85;;;16.70;99.90;;;;;;5047740;28;20048;-72
2023/10/13 01:46:59;;;;;;;48.83;22.45;;;16.60;99.90;;;;;;5067291;28;20041;-72
2023/10/13 01:49:25;;;;;;;48.20;22.60;;;;;;;;;;5046116;28;20051;-72
2023/10/13 01:51:51;;;;;;;46.33;20.73;;;16.50;99.90;;;;;;5047888;28;20047;-72
2023/10/13 01:54:17;;;;;;;48.58;22.38;;;;;;;;;;5063002;28;20037;-72
2023/10/13 01:56:43;;;;;;;52.25;23.08;;;;;;;;;;5047958;28;20500;-72
2023/10/13 01:59:13;;;;;;;49.78;23.02;;;16.50;99.90;;;;;;5039155;28;20051;-72
2023/10/13 02:01:40;;;;;;;50.42;21.35;;;;;;;;;;5045643;28;20432;-72
2023/10/13 02:04:06;;;;;;;51.45;22.90;;;;;;;;;;5065042;28;20198;-72
2023/10/13 02:06:36;;;;;;;47.65;23.35;;;16.60;99.90;;;;;;5047003;28;20127;-72
2023/10/13 02:09:12;;;;;;;50.35;23.25;;;16.90;99.90;;;;;;5065339;28;20036;-72
2023/10/13 02:11:45;;;;;;;45.65;22.85;;;16.70;99.90;;;;;;5064362;28;20082;-72
2023/10/13 02:14:11;;;;;;;55.92;23.73;;;;;;;;;;5043097;28;20037;-72
2023/10/13 02:16:38;;;;;;;49.67;23.80;;;;;;;;;;5046440;28;20041;-72
2023/10/13 02:19:08;;;;;;;48.88;24.42;;;16.90;99.90;;;;;;5048577;28;20737;-72
2023/10/13 02:21:39;;;;;;;48.22;24.73;;;;;;;;;;5046125;28;20063;-72
2023/10/13 02:24:12;;;;;;;48.60;24.20;;;16.80;99.90;;;;;;5057995;28;20064;-72
2023/10/13 02:26:39;;;;;;;51.05;25.80;;;;;;;;;;5041956;28;20064;-72
2023/10/13 02:29:07;;;;;;;47.35;23.05;;;16.60;99.90;;;;;;5047348;28;20489;-72
2023/10/13 02:31:36;;;;;;;51.33;24.85;;;16.90;99.90;;;;;;5038888;28;20110;-72
2023/10/13 02:34:07;;;;;;;45.83;23.33;;;;;;;;;;5045911;28;20041;-72
2023/10/13 02:36:46;;;;;;;48.58;24.67;;;16.90;99.90;;;;;;5048201;28;20075;-72
2023/10/13 02:39:13;;;;;;;45.72;24.75;;;;;;;;;;5063233;28;20044;-72
2023/10/13 02:41:40;;;;;;;39.28;19.48;;;16.80;99.90;;;;;;5047722;28;20132;-72
2023/10/13 02:44:06;;;;;;;36.67;19.30;;;16.70;99.90;;;;;;5057767;28;20052;-72
2023/10/13 02:46:35;;;;;;;36.20;19.23;;;;;;;;;;5036932;28;20578;-72
2023/10/13 02:49:10;;;;;;;35.75;19.60;;;16.70;99.90;;;;;;5058893;28;20076;-72
2023/10/13 02:51:37;;;;;;;31.63;18.30;;;16.60;99.90;;;;;;5046059;28;20044;-72
2023/10/13 02:54:10;;;;;;;33.15;17.20;;;16.60;99.90;;;;;;5064313;28;20048;-72
2023/10/13 02:56:36;;;;;;;29.67;16.48;;;;;;;;;;5046260;28;20052;-72
2023/10/13 02:59:06;;;;;;;32.10;17.40;;;16.50;99.90;;;;;;5063515;28;20498;-72
2023/10/13 03:01:35;;;;;;;36.30;19.05;;;16.60;99.90;;;;;;5044032;28;20044;-72
2023/10/13 03:04:03;;;;;;;38.45;20.35;;;16.60;99.90;;;;;;5043648;28;20088;-72
2023/10/13 03:06:32;;;;;;;35.95;19.38;;;16.50;99.90;;;;;;5042928;28;20056;-72
2023/10/13 03:09:14;;;;;;;40.67;20.45;;;16.80;99.90;;;;;;5066504;28;20136;-72
2023/10/13 03:11:50;;;;;;;39.08;20.48;;;16.70;99.90;;;;;;5047391;28;20433;-72
2023/10/13 03:17:09;;;;;;;40.63;20.67;;;16.60;99.90;;;;;;5045856;28;20108;-72
2023/10/13 03:19:36;;;;;;;42.67;21.25;;;16.70;99.90;;;;;;5062841;28;20498;-72
2023/10/13 03:22:09;;;;;;;41.38;19.55;;;16.60;99.90;;;;;;5045887;28;20189;-72
2023/10/13 03:24:44;;;;;;;37.85;20.83;;;16.70;99.90;;;;;;5046031;28;20069;-72
2023/10/13 03:27:11;;;;;;;;;;;16.70;99.90;;;;;;5060826;28;20097;-73
2023/10/13 03:29:44;;;;;;;41.90;19.42;;;15.10;99.90;;;;;;5046711;28;19924;-73
2023/10/13 03:32:15;;;;;;;38.75;20.13;;;16.70;99.90;;;;;;5045235;28;20044;-72
2023/10/13 03:34:53;;;;;;;36.17;17.92;;;16.80;99.90;;;;;;5046376;28;20044;-72
2023/10/13 03:37:38;;;;;;;35.85;18.23;;;16.60;99.90;;;;;;5063580;28;20072;-72
2023/10/13 03:40:34;;;;;;;40.17;18.10;;;16.70;99.90;;;;;;5045075;28;20082;-72
2023/10/13 03:45:26;;;;;;;34.55;16.73;;;16.60;99.90;;;;;;5043058;28;20060;-72
2023/10/13 03:47:52;;;;;;;34.83;16.20;;;16.70;99.90;;;;;;5041410;28;20068;-72
2023/10/13 03:50:32;;;;;;;30.63;15.68;;;16.50;99.90;;;;;;5030572;28;20047;-72
2023/10/13 03:52:58;;;;;;;31.88;16.17;;;;;;;;;;5041241;28;20502;-73
2023/10/13 03:55:28;;;;;;;36.20;15.73;;;16.70;99.90;;;;;;5062297;28;20138;-73
2023/10/13 03:57:54;;;;;;;32.60;16.67;;;16.70;99.90;;;;;;5045337;28;20040;-73
2023/10/13 04:00:24;;;;;;;38.58;17.65;;;17.30;99.90;;;;;;5046517;28;20105;-73
2023/10/13 04:03:07;;;;;;;41.90;19.05;;;;;;;;;;5064627;28;20048;-73
2023/10/13 04:05:40;;;;;;;37.10;16.80;;;16.50;99.90;;;;;;5040576;28;20103;-73
2023/10/13 04:16:51;;;;;;;40.28;18.33;;;16.80;99.90;;;;;;5059150;28;20048;-72
2023/10/13 04:19:19;;;;;;;40.30;19.23;;;;;;;;;;5019797;28;20662;-73
2023/10/13 04:24:23;;;;;;;40.65;19.48;;;16.80;99.90;;;;;;5040012;28;20064;-72
2023/10/13 04:32:28;;;;;;;39.47;17.45;;;;;;;;;;5042227;28;20406;-73
2023/10/13 04:35:08;;;;;;;35.40;17.45;;;16.40;99.90;;;;;;5064208;28;20055;-73
2023/10/13 04:37:48;;;;;;;31.83;17.15;;;;;;;;;;5043960;28;20045;-73
2023/10/13 04:40:14;;;;;;;34.65;17.58;;;;;;;;;;5046033;28;20436;-73
2023/10/13 04:42:50;;;;;;;33.55;16.80;;;;;;;;;;5040093;28;20051;-72
2023/10/13 04:50:53;;;;;;;32.33;17.05;;;16.70;99.90;;;;;;5052849;28;20048;-72
2023/10/13 04:53:59;;;;;;;30.63;16.23;;;;;;;;;;5065375;28;20077;-73
2023/10/13 05:04:30;;;;;;;29.92;14.80;;;;;;;;;;5041866;28;20677;-72
2023/10/13 05:45:36;;;;;;;16.60;10.38;;;;;;;;;;5046297;28;20061;-72
2023/10/13 05:48:11;;;;;;;13.35;8.68;;;;;;;;;;5045109;28;20045;-73
2023/10/13 05:51:32;;;;;;;13.93;8.55;;;16.40;99.90;;;;;;5047449;28;20044;-73
2023/10/13 06:29:19;;;;;;;10.13;5.63;;;;;;;;;;5048056;28;20040;-73
2023/10/13 06:31:46;;;;;;;9.48;6.18;;;16.40;99.90;;;;;;5063165;28;20051;-73
2023/10/13 06:34:15;;;;;;;9.35;5.53;;;;;;;;;;5048765;28;20048;-71
2023/10/13 06:36:41;;;;;;;7.75;5.05;;;;;;;;;;5063634;28;20191;-71
2023/10/13 06:42:02;;;;;;;;;;;16.70;99.90;;;;;;5030806;28;20052;-71
2023/10/13 06:44:32;;;;;;;7.35;5.50;;;16.50;99.90;;;;;;5047810;28;19920;-71
2023/10/13 06:46:58;;;;;;;6.72;4.80;;;;;;;;;;5028359;28;20049;-72
2023/10/13 06:49:24;;;;;;;8.38;5.03;;;;;;;;;;5052391;28;20528;-71
2023/10/13 06:51:51;;;;;;;7.95;4.57;;;;;;;;;;5047753;28;20040;-71
2023/10/13 06:54:20;;;;;;;6.45;4.50;;;;;;;;;;5048307;28;20081;-71
2023/10/13 06:56:46;;;;;;;7.75;4.72;;;;;;;;;;5063127;28;20489;-71
2023/10/13 06:59:13;;;;;;;7.90;3.97;;;;;;;;;;5048037;28;20087;-72
2023/10/13 07:01:40;;;;;;;7.00;4.15;;;16.70;99.90;;;;;;5040866;28;20455;-72
2023/10/13 07:04:16;;;;;;;10.93;4.85;;;16.50;99.90;;;;;;5042191;28;20080;-72
2023/10/13 07:06:48;;;;;;;9.05;4.10;;;16.70;99.90;;;;;;5041019;28;20056;-72
2023/10/13 07:12:03;;;;;;;12.70;4.45;;;16.70;99.90;;;;;;5043576;28;20052;-71
2023/10/13 07:14:33;;;;;;;17.02;6.03;;;;;;;;;;5038543;28;20087;-70
2023/10/13 07:17:04;;;;;;;14.30;4.25;;;16.40;99.90;;;;;;5045685;28;20075;-70
2023/10/13 07:19:30;;;;;;;11.43;4.28;;;;;;;;;;5044355;28;20488;-70
2023/10/13 07:22:03;;;;;;;12.40;4.75;;;16.60;99.90;;;;;;5044656;28;20044;-70
2023/10/13 07:24:31;;;;;;;9.65;5.10;;;16.70;99.90;;;;;;5042547;28;20077;-70
2023/10/13 07:27:03;;;;;;;13.32;4.88;;;16.60;99.90;;;;;;5042463;28;20049;-70
2023/10/13 07:29:29;;;;;;;9.02;4.22;;;16.70;99.90;;;;;;5059468;28;20086;-69
2023/10/13 07:31:55;;;;;;;14.57;4.03;;;;;;;;;;5043730;28;20490;-69
2023/10/13 07:34:26;;;;;;;12.30;4.38;;;16.70;99.90;;;;;;5063901;28;20048;-70
2023/10/13 07:37:01;;;;;;;14.77;5.32;;;16.70;99.90;;;;;;5043149;28;20082;-69
2023/10/13 07:39:28;;;;;;;18.67;5.72;;;16.70;99.90;;;;;;5048335;28;20387;-69
2023/10/13 07:41:55;;;;;;;16.38;4.93;;;16.70;99.90;;;;;;5042683;28;20048;-69
2023/10/13 07:44:31;;;;;;;18.52;5.47;;;16.70;99.90;;;;;;5026482;28;20049;-69
2023/10/13 07:47:04;;;;;;;12.20;4.68;;;;;;;;;;5041206;28;20090;-69
2023/10/13 07:49:32;;;;;;;19.92;5.05;;;16.80;99.90;;;;;;5042803;28;20040;-68
2023/10/13 07:54:55;;;;;;;15.07;7.22;;;16.70;99.90;;;;;;5059821;28;20044;-69
2023/10/13 07:57:29;;;;;;;16.63;5.45;;;;;;;;;;5038243;28;20057;-69
2023/10/13 08:00:06;;;;;;;16.60;5.75;;;;;;;;;;5038814;28;20040;-69
2023/10/13 08:02:51;;;;;;;13.32;5.57;;;16.80;99.90;;;;;;5028439;28;20048;-69
2023/10/13 08:05:39;;;;;;;14.27;5.53;;;16.80;99.90;;;;;;5060272;28;20040;-69
2023/10/13 08:08:04;;;;;;;21.35;6.18;;;16.80;99.90;;;;;;5040448;28;20049;-69
2023/10/13 08:10:35;;;;;;;15.80;6.47;;;16.60;99.90;;;;;;5037648;28;20045;-69
2023/10/13 08:13:01;;;;;;;16.58;5.72;;;;;;;;;;5062159;28;20051;-69
2023/10/13 08:15:32;;;;;;;14.27;6.35;;;16.90;99.90;;;;;;5046831;28;20041;-69
2023/10/13 08:18:00;;;;;;;14.27;5.50;;;16.70;99.90;;;;;;5045466;28;20217;-69
2023/10/13 08:20:30;;;;;;;21.63;6.28;;;16.90;99.90;;;;;;5043007;28;20524;-69
2023/10/13 08:23:13;;;;;;;15.45;6.38;;;;;;;;;;5062015;28;20051;-69
2023/10/13 08:31:22;;;;;;;14.88;6.47;;;;;;;;;;4976290;28;20046;-68
2023/10/13 08:33:57;;;;;;;16.42;6.70;;;17.10;99.90;;;;;;5037526;28;20040;-69
2023/10/13 08:36:28;;;;;;;15.25;7.88;;;;;;;;;;5042715;28;20056;-69
2023/10/13 08:38:55;;;;;;;18.65;6.97;;;17.00;99.90;;;;;;5040419;28;20501;-69
2023/10/13 08:43:53;;;;;;;14.75;6.78;;;17.00;99.90;;;;;;5063014;28;20464;-69
2023/10/13 08:46:28;;;;;;;20.65;8.00;;;17.10;99.90;;;;;;5029775;28;20504;-69
2023/10/13 08:49:06;;;;;;;16.17;7.22;;;17.10;99.90;;;;;;5040582;28;20515;-69
2023/10/13 08:51:43;;;;;;;16.48;8.02;;;17.00;99.90;;;;;;5041465;28;20049;-69
2023/10/13 08:54:20;;;;;;;16.02;7.60;;;17.00;99.90;;;;;;5064067;28;20055;-69
2023/10/13 08:56:56;;;;;;;21.85;8.07;;;17.30;99.90;;;;;;5040300;28;20485;-68
2023/10/13 08:59:23;;;;;;;18.83;7.93;;;17.40;99.90;;;;;;5045341;28;20171;-68
2023/10/13 09:01:59;;;;;;;16.75;8.65;;;17.30;99.90;;;;;;5038956;28;20122;-69
2023/10/13 09:04:33;;;;;;;14.32;7.88;;;;;;;;;;5027534;28;20052;-70
2023/10/13 09:12:19;;;;;;;17.67;8.30;;;17.70;99.90;;;;;;5055169;28;20052;-69
2023/10/13 09:14:58;;;;;;;15.18;8.10;;;17.80;99.90;;;;;;5039020;28;20043;-69
2023/10/13 09:17:35;;;;;;;17.83;8.27;;;17.80;99.90;;;;;;5046331;28;20060;-70
2023/10/13 09:25:58;;;;;;;19.92;7.05;;;17.90;99.90;;;;;;5062869;28;20084;-69
2023/10/13 09:28:28;;;;;;;15.77;6.63;;;18.00;99.90;;;;;;5048847;28;20040;-69
2023/10/13 09:30:58;;;;;;;13.00;6.47;;;18.10;99.90;;;;;;5031083;28;20463;-69
2023/10/13 09:34:09;;;;;;;12.45;6.18;;;18.10;99.90;;;;;;5045420;28;20047;-69
2023/10/13 09:36:17;;;;;;;13.02;5.88;;;18.20;99.90;;;;;;5052869;28;20151;-69
2023/10/13 09:39:10;;;;;;;10.18;5.40;;;18.30;99.90;;;;;;5030312;28;20174;-69
2023/10/13 09:41:32;;;;;;;13.82;5.18;;;18.30;99.90;;;;;;5049155;28;20410;-68
2023/10/13 09:43:58;;;;;;;17.27;6.93;;;18.30;99.90;;;;;;5041747;28;20040;-68
2023/10/13 09:46:28;;;;;;;14.20;5.47;;;18.60;99.90;;;;;;5048008;28;20448;-69
2023/10/13 09:49:22;;;;;;;14.35;5.60;;;18.40;99.90;;;;;;5066801;28;20079;-69
2023/10/13 09:51:48;;;;;;;16.58;5.68;;;18.50;99.90;;;;;;5048167;28;20039;-69
2023/10/13 09:54:30;;;;;;;10.90;5.72;;;18.40;99.90;;;;;;5048396;28;20048;-68
2023/10/13 09:57:09;;;;;;;12.57;5.90;;;18.60;99.90;;;;;;5062250;28;20124;-68
2023/10/13 10:00:06;;;;;;;10.82;5.22;;;18.40;99.90;;;;;;5030172;28;20032;-68
2023/10/13 10:02:32;;;;;;;12.90;5.05;;;;;;;;;;5061770;28;20153;-68
2023/10/13 10:05:21;;;;;;;13.43;4.97;;;18.60;99.90;;;;;;5049291;28;20067;-68
2023/10/13 10:08:01;;;;;;;11.65;5.28;;;18.60;99.90;;;;;;5063644;28;20044;-68
2023/10/13 10:11:04;;;;;;;17.05;6.43;;;18.80;99.90;;;;;;5047448;28;20139;-68
2023/10/13 10:13:45;;;;;;;13.90;5.47;;;18.90;99.90;;;;;;5058361;28;20052;-68
2023/10/13 10:16:19;;;;;;;13.60;6.15;;;19.00;99.90;;;;;;5063762;28;20441;-69
2023/10/13 10:18:45;;;;;;;13.87;5.37;;;18.90;99.90;;;;;;5040197;28;20081;-69
2023/10/13 10:21:12;;;;;;;14.95;5.68;;;;;;;;;;5029991;28;20068;-69
2023/10/13 10:23:41;;;;;;;14.48;5.15;;;19.00;99.90;;;;;;5043875;28;20092;-69
2023/10/13 10:26:24;;;;;;;16.05;4.55;;;19.10;99.90;;;;;;5063982;28;20049;-69
2023/10/13 10:28:51;;;;;;;13.48;5.75;;;;;;;;;;5024258;28;20044;-69
2023/10/13 10:31:19;;;;;;;12.13;4.53;;;;;;;;;;5064257;28;20072;-70
2023/10/13 10:33:50;;;;;;;22.25;5.90;;;19.20;99.90;;;;;;5044153;28;20040;-69
2023/10/13 10:36:27;;;;;;;11.38;4.90;;;19.20;99.90;;;;;;5044044;28;20042;-69
2023/10/13 10:39:05;;;;;;;15.98;4.85;;;;;;;;;;5061883;28;20082;-69
2023/10/13 10:41:44;;;;;;;13.70;5.63;;;19.30;99.90;;;;;;5038228;28;20056;-69
2023/10/13 10:44:19;;;;;;;19.90;5.22;;;19.30;99.90;;;;;;5038677;28;20135;-69
2023/10/13 10:46:57;;;;;;;;;;;20.70;99.90;;;;;;5037877;28;20076;-69
2023/10/13 10:49:28;;;;;;;14.05;4.90;;;19.40;99.90;;;;;;5040142;28;19924;-69
2023/10/13 10:52:01;;;;;;;16.40;5.25;;;19.50;99.90;;;;;;5047115;28;20048;-69
2023/10/13 10:54:31;;;;;;;14.95;5.53;;;19.70;99.90;;;;;;5046739;28;20052;-69
2023/10/13 10:57:10;;;;;;;14.88;4.47;;;19.80;99.90;;;;;;5044734;28;20086;-69
2023/10/13 10:59:39;;;;;;;18.20;5.18;;;19.90;99.90;;;;;;5043286;28;20084;-69
2023/10/13 11:02:07;;;;;;;14.45;4.90;;;19.80;99.90;;;;;;5046605;28;20059;-69
2023/10/13 11:04:33;;;;;;;9.10;4.55;;;;;;;;;;5057482;28;20045;-69
2023/10/13 11:06:59;;;;;;;13.60;4.70;;;19.80;99.90;;;;;;5060428;28;20055;-69
2023/10/13 11:09:37;;;;;;;14.20;4.80;;;19.80;99.90;;;;;;5036220;28;20048;-67
2023/10/13 11:12:15;;;;;;;16.73;5.65;;;19.80;99.90;;;;;;5035080;28;20560;-70
2023/10/13 11:14:51;;;;;;;17.02;5.22;;;19.70;99.90;;;;;;5028474;28;20068;-70
2023/10/13 11:17:26;;;;;;;13.45;3.85;;;19.90;99.90;;;;;;5041948;28;20525;-70
2023/10/13 11:19:51;;;;;;;;;;;21.90;99.90;;;;;;5029261;28;20059;-69
2023/10/13 11:22:32;;;;;;;13.35;4.18;;;19.80;99.90;;;;;;5039102;28;19921;-69
2023/10/13 11:25:12;;;;;;;18.73;5.80;;;20.00;99.90;;;;;;5046858;28;20122;-69
2023/10/13 11:30:20;;;;;;;14.77;4.80;;;19.80;99.90;;;;;;5062216;28;20047;-69
2023/10/13 11:33:07;;;;;;;10.02;4.65;;;19.80;99.90;;;;;;5039523;28;20040;-70
2023/10/13 11:38:25;;;;;;;13.25;4.70;;;19.90;99.90;;;;;;5063885;28;20417;-68
2023/10/13 11:43:35;;;;;;;17.27;4.50;;;;;;;;;;5044309;28;20075;-69
2023/10/13 11:48:36;;;;;;;16.25;5.07;;;19.80;99.90;;;;;;5043275;28;20048;-71
2023/10/13 11:51:07;;;;;;;14.75;5.03;;;19.70;99.90;;;;;;5046231;28;20040;-68
2023/10/13 11:53:34;;;;;;;20.45;5.63;;;19.70;99.90;;;;;;5045198;28;20032;-67
2023/10/13 11:55:59;;;;;;;15.48;5.30;;;19.80;99.90;;;;;;5064496;28;20766;-68
2023/10/13 11:58:25;;;;;;;12.50;4.88;;;19.80;99.90;;;;;;5039376;28;20084;-69
2023/10/13 12:00:53;;;;;;;12.45;4.60;;;;;;;;;;5065104;28;20041;-68
2023/10/13 12:06:32;;;;;;;15.52;5.07;;;;;;;;;;5044214;28;20040;-69
2023/10/13 12:09:11;;;;;;;12.73;5.05;;;19.70;99.90;;;;;;5029266;28;20037;-69
2023/10/13 12:11:44;;;;;;;14.27;4.63;;;19.80;99.90;;;;;;5028427;28;20124;-69
2023/10/13 12:14:16;;;;;;;19.35;5.97;;;;;;;;;;5029202;28;20053;-70
2023/10/13 12:16:48;;;;;;;13.98;4.47;;;19.30;99.90;;;;;;5062769;28;20072;-70
2023/10/13 12:19:16;;;;;;;12.57;5.30;;;19.40;99.90;;;;;;5040603;28;20052;-70
2023/10/13 12:21:43;;;;;;;12.73;5.68;;;19.60;99.90;;;;;;5063109;28;20040;-69
2023/10/13 12:24:22;;;;;;;12.85;4.63;;;;;;;;;;5043504;28;20517;-70
2023/10/13 12:26:48;;;;;;;13.82;4.90;;;19.50;99.90;;;;;;5038174;28;20052;-69
2023/10/13 12:29:22;;;;;;;20.20;6.88;;;;;;;;;;5039552;28;20052;-69
2023/10/13 12:32:01;;;;;;;18.10;6.38;;;19.60;99.90;;;;;;5039202;28;20064;-69
2023/10/13 12:34:57;;;;;;;14.00;5.43;;;19.50;99.90;;;;;;5037591;28;20049;-69
2023/10/13 12:51:19;;;;;;;15.60;5.35;;;19.80;99.90;;;;;;5039733;28;20041;-68
2023/10/13 12:53:45;;;;;;;14.52;5.20;;;;;;;;;;5026450;28;20044;-68
2023/10/13 12:56:11;;;;;;;16.30;6.15;;;;;;;;;;5038797;28;20045;-68
2023/10/13 12:58:37;;;;;;;17.75;5.97;;;19.70;99.90;;;;;;5043822;28;20049;-68
2023/10/13 13:01:08;;;;;;;12.40;4.93;;;19.70;99.90;;;;;;5039633;28;20085;-68
2023/10/13 13:03:34;;;;;;;15.07;6.25;;;19.60;99.90;;;;;;5038078;28;20080;-68
2023/10/13 13:06:07;;;;;;;12.00;4.47;;;;;;;;;;5021305;28;20083;-70
2023/10/13 13:08:35;;;;;;;22.42;6.90;;;20.60;99.90;;;;;;5040998;28;20084;-68
2023/10/13 13:11:01;;;;;;;12.00;5.88;;;19.50;99.90;;;;;;5036536;28;20446;-68
2023/10/13 13:13:27;;;;;;;13.57;5.80;;;;;;;;;;5042880;28;20033;-68
2023/10/13 13:15:53;;;;;;;18.08;6.15;;;19.40;99.90;;;;;;5041678;28;20406;-69
2023/10/13 13:18:19;;;;;;;18.00;6.55;;;19.40;99.90;;;;;;5041325;28;20044;-70
2023/10/13 13:20:54;;;;;;;13.15;5.22;;;19.40;99.90;;;;;;5036263;28;20049;-68
2023/10/13 13:23:21;;;;;;;14.75;6.10;;;;;;;;;;5045003;28;20056;-70
2023/10/13 13:25:47;;;;;;;13.05;5.90;;;;;;;;;;5045834;28;20139;-71
2023/10/13 13:28:15;;;;;;;19.50;6.65;;;19.20;99.90;;;;;;5042098;28;20040;-73
2023/10/13 13:30:46;;;;;;;21.95;6.40;;;19.20;99.90;;;;;;5044451;28;20151;-69
2023/10/13 13:33:11;;;;;;;17.70;6.75;;;19.30;99.90;;;;;;5045852;28;20083;-72
2023/10/13 13:35:42;;;;;;;17.30;6.13;;;19.20;99.90;;;;;;5027638;28;20600;-68
2023/10/13 13:38:29;;;;;;;19.10;7.22;;;19.20;99.90;;;;;;5058971;28;20041;-70
2023/10/13 13:40:55;;;;;;;21.98;6.38;;;;;;;;;;5060653;28;20036;-68
2023/10/13 13:46:09;;;;;;;;;;;19.30;99.90;;;;;;5042772;28;20056;-70
2023/10/13 13:48:39;;;;;;;19.17;6.00;;;19.20;99.90;;;;;;5059713;28;20097;-72
2023/10/13 13:51:12;;;;;;;13.52;5.82;;;19.20;99.90;;;;;;5021477;28;20037;-71
2023/10/13 13:53:42;;;;;;;8.70;5.18;;;;;;;;;;5028283;28;20083;-72
2023/10/13 13:56:08;;;;;;;14.30;6.72;;;;;;;;;;5045288;28;20036;-76
2023/10/13 13:58:34;;;;;;;14.02;5.82;;;;;;;;;;5028742;28;20045;-69
2023/10/13 14:01:14;;;;;;;15.35;5.68;;;19.20;99.90;;;;;;5042673;28;20066;-70
2023/10/13 14:03:46;;;;;;;21.98;5.47;;;19.40;99.90;;;;;;5060281;28;20488;-68
2023/10/13 14:06:23;;;;;;;11.60;5.45;;;19.30;99.90;;;;;;5047334;28;20127;-69
2023/10/13 14:08:50;;;;;;;13.75;6.40;;;;;;;;;;5045565;28;20469;-69
2023/10/13 14:11:22;;;;;;;20.92;5.93;;;;;;;;;;5046948;28;20044;-69
2023/10/13 14:13:49;;;;;;;22.40;6.28;;;19.30;99.90;;;;;;5042283;28;20358;-71
2023/10/13 14:16:20;;;;;;;20.35;6.78;;;19.30;99.90;;;;;;5063324;28;20068;-71
2023/10/13 14:18:46;;;;;;;24.02;5.78;;;19.40;99.90;;;;;;5026935;28;20457;-70
2023/10/13 14:21:16;;;;;;;12.30;5.43;;;19.40;99.90;;;;;;5043911;28;20041;-70
2023/10/13 14:23:53;;;;;;;18.13;6.35;;;19.50;99.90;;;;;;5047872;28;20088;-71
2023/10/13 14:26:25;;;;;;;16.58;5.57;;;;;;;;;;5044890;28;20068;-71
2023/10/13 14:29:09;;;;;;;14.85;6.05;;;19.40;99.90;;;;;;5046624;28;20465;-71
2023/10/13 14:31:39;;;;;;;15.07;6.00;;;19.40;99.90;;;;;;5041082;28;20375;-71
2023/10/13 14:34:06;;;;;;;12.45;5.95;;;19.50;99.90;;;;;;5046849;28;20583;-70
2023/10/13 14:36:35;;;;;;;14.73;6.93;;;;;;;;;;5037065;28;20048;-70
2023/10/13 14:39:09;;;;;;;19.38;6.20;;;19.70;99.90;;;;;;5044233;28;20044;-69
2023/10/13 14:41:41;;;;;;;13.68;7.18;;;19.40;99.90;;;;;;5043731;28;20131;-69
2023/10/13 14:44:07;;;;;;;16.33;5.80;;;;;;;;;;5031151;28;20462;-71
2023/10/13 14:46:39;;;;;;;17.15;6.82;;;19.50;99.90;;;;;;5044014;28;20061;-71
2023/10/13 14:49:05;;;;;;;16.30;4.97;;;19.60;99.90;;;;;;5031497;28;20123;-70
2023/10/13 14:51:35;;;;;;;16.73;5.65;;;19.30;99.90;;;;;;5041006;28;20040;-70
2023/10/13 14:54:09;;;;;;;16.10;6.33;;;19.40;99.90;;;;;;5028914;28;20037;-70
2023/10/13 14:56:35;;;;;;;15.00;6.95;;;;;;;;;;5046728;28;20040;-70
2023/10/13 14:59:04;;;;;;;21.58;7.75;;;;;;;;;;5046893;28;20474;-68
2023/10/13 15:01:32;;;;;;;18.42;7.03;;;19.20;99.90;;;;;;5061343;28;20406;-69
2023/10/13 15:03:58;;;;;;;16.50;6.55;;;19.10;99.90;;;;;;5058885;28;20050;-70
2023/10/13 15:06:28;;;;;;;26.23;7.45;;;19.20;99.90;;;;;;5042939;28;20056;-70
2023/10/13 15:08:59;;;;;;;23.13;9.02;;;19.00;99.90;;;;;;5047455;28;20135;-69
2023/10/13 15:11:40;;;;;;;19.67;8.43;;;18.80;99.90;;;;;;5043982;28;20057;-69
2023/10/13 15:14:06;;;;;;;21.00;9.10;;;18.70;99.90;;;;;;5041256;28;20403;-69
2023/10/13 15:16:35;;;;;;;20.88;8.50;;;18.50;99.90;;;;;;5042645;28;20076;-69
2023/10/13 15:19:03;;;;;;;18.77;7.75;;;18.50;99.90;;;;;;5039422;28;20056;-70
2023/10/13 15:21:34;;;;;;;15.85;7.45;;;18.50;99.90;;;;;;5046181;28;20052;-69
2023/10/13 15:24:16;;;;;;;22.38;8.65;;;18.40;99.90;;;;;;5061348;28;20060;-69
2023/10/13 15:26:52;;;;;;;21.98;7.60;;;18.50;99.90;;;;;;5063732;28;20044;-69
2023/10/13 15:29:24;;;;;;;20.83;8.25;;;18.40;99.90;;;;;;5062453;28;20067;-69
2023/10/13 15:32:05;;;;;;;19.30;8.93;;;;;;;;;;5042145;28;20044;-69
2023/10/13 15:34:31;;;;;;;16.23;8.63;;;;;;;;;;5060537;28;20116;-69
2023/10/13 15:36:58;;;;;;;21.92;8.38;;;18.30;99.90;;;;;;5045656;28;20051;-69
2023/10/13 15:39:24;;;;;;;14.10;7.47;;;18.50;99.90;;;;;;5038153;28;20097;-69
2023/10/13 15:41:53;;;;;;;19.70;7.13;;;18.60;99.90;;;;;;5045382;28;20056;-69
2023/10/13 15:44:21;;;;;;;15.98;7.82;;;18.40;99.90;;;;;;5041601;28;20049;-69
2023/10/13 15:46:49;;;;;;;18.88;8.05;;;18.50;99.90;;;;;;5043457;28;20082;-69
2023/10/13 15:49:15;;;;;;;22.27;7.78;;;18.60;99.90;;;;;;5039296;28;20044;-70
2023/10/13 15:51:41;;;;;;;15.73;7.72;;;18.40;99.90;;;;;;5038299;28;20037;-69
2023/10/13 15:54:14;;;;;;;16.30;7.53;;;18.40;99.90;;;;;;5046167;28;20043;-69
2023/10/13 15:56:43;;;;;;;21.30;8.23;;;18.30;99.90;;;;;;5046429;28;20090;-69
2023/10/13 15:59:09;;;;;;;20.92;8.43;;;;;;;;;;5045520;28;20534;-70
2023/10/13 16:01:35;;;;;;;18.38;7.50;;;;;;;;;;5045858;28;20044;-70
2023/10/13 16:04:10;;;;;;;14.27;6.25;;;;;;;;;;5057815;28;20148;-70
2023/10/13 16:06:36;;;;;;;13.63;6.43;;;;;;;;;;5031397;28;20099;-70
2023/10/13 16:09:03;;;;;;;20.08;6.78;;;18.30;99.90;;;;;;5039077;28;20044;-69
2023/10/13 16:11:29;;;;;;;17.55;6.00;;;;;;;;;;5041673;28;20545;-70
2023/10/13 16:13:55;;;;;;;13.80;6.05;;;;;;;;;;5055041;28;20044;-70
2023/10/13 16:16:25;;;;;;;16.23;6.13;;;18.30;99.90;;;;;;5042704;28;20049;-70